Time,TemperatureF,DewpointF,PressureIn,WindDirection,WindDirectionDegrees,WindSpeedMPH,WindSpeedGustMPH,Humidity,HourlyPrecipIn,Conditions,Clouds,dailyrainin,SoftwareType,DateUTC
2013-04-05 00:10:00,42.2,18.0,29.99,WSW,240,2.0,-999.0,38,-99.99,,,0.00,weatherlink.com 1.10,2013-04-05 04:10:00,
2013-04-05 00:25:00,41.9,18.0,29.99,WSW,237,2.0,-999.0,39,-99.99,,,0.00,weatherlink.com 1.10,2013-04-05 04:25:00,
2013-04-05 00:40:00,41.6,19.0,29.99,WSW,248,6.0,-999.0,41,-99.99,,,0.00,weatherlink.com 1.10,2013-04-05 04:40:00,
2013-04-05 00:55:00,41.2,20.0,29.98,WNW,302,2.0,-999.0,42,-99.99,,,0.00,weatherlink.com 1.10,2013-04-05 04:55:00,
2013-04-05 01:10:00,40.9,20.0,29.98,WSW,248,4.0,-999.0,43,-99.99,,,0.00,weatherlink.com 1.10,2013-04-05 05:10:00,
2013-04-05 01:25:00,40.6,21.0,29.97,WSW,244,3.0,-999.0,45,-99.99,,,0.00,weatherlink.com 1.10,2013-04-05 05:25:00,
2013-04-05 01:41:00,40.3,21.0,29.97,WSW,237,3.0,-999.0,46,-99.99,,,0.00,weatherlink.com 1.10,2013-04-05 05:41:00,
2013-04-05 01:55:00,40.1,22.0,29.96,SW,226,2.0,-999.0,48,-99.99,,,0.00,weatherlink.com 1.10,2013-04-05 05:55:00,
2013-04-05 02:10:00,39.8,22.0,29.95,WSW,243,1.0,-999.0,49,-99.99,,,0.00,weatherlink.com 1.10,2013-04-05 06:10:00,
2013-04-05 02:25:00,39.3,22.0,29.95,WSW,243,1.0,-999.0,50,-99.99,,,0.00,weatherlink.com 1.10,2013-04-05 06:25:00,
2013-04-05 02:40:00,39.1,22.0,29.95,WSW,240,0.0,-999.0,51,-99.99,,,0.00,weatherlink.com 1.10,2013-04-05 06:40:00,
2013-04-05 02:55:00,38.8,23.0,29.94,WSW,240,0.0,-999.0,53,-99.99,,,0.00,weatherlink.com 1.10,2013-04-05 06:55:00,
2013-04-05 03:10:00,38.5,23.0,29.94,WSW,240,0.0,-999.0,54,-99.99,,,0.00,weatherlink.com 1.10,2013-04-05 07:10:00,
2013-04-05 03:25:00,38.0,23.0,29.93,WSW,240,0.0,-999.0,56,-99.99,,,0.00,weatherlink.com 1.10,2013-04-05 07:25:00,
2013-04-05 03:40:00,37.5,24.0,29.92,WSW,237,0.0,-999.0,58,-99.99,,,0.00,weatherlink.com 1.10,2013-04-05 07:40:00,
2013-04-05 03:55:00,37.0,24.0,29.91,SW,236,1.0,-999.0,60,-99.99,,,0.00,weatherlink.com 1.10,2013-04-05 07:55:00,
2013-04-05 04:10:00,36.8,24.0,29.91,SW,234,0.0,-999.0,61,-99.99,,,0.00,weatherlink.com 1.10,2013-04-05 08:10:00,
2013-04-05 04:25:00,36.6,25.0,29.91,SW,234,0.0,-999.0,62,-99.99,,,0.00,weatherlink.com 1.10,2013-04-05 08:25:00,
2013-04-05 04:40:00,36.5,25.0,29.91,SW,234,0.0,-999.0,64,-99.99,,,0.00,weatherlink.com 1.10,2013-04-05 08:40:00,
2013-04-05 04:55:00,36.3,25.0,29.91,SW,234,0.0,-999.0,64,-99.99,,,0.00,weatherlink.com 1.10,2013-04-05 08:55:00,
2013-04-05 05:10:00,36.2,25.0,29.91,SW,234,0.0,-999.0,65,-99.99,,,0.00,weatherlink.com 1.10,2013-04-05 09:10:00,
2013-04-05 05:25:00,36.0,26.0,29.90,SW,234,0.0,-999.0,66,-99.99,,,0.00,weatherlink.com 1.10,2013-04-05 09:25:00,
2013-04-05 05:40:00,35.8,25.0,29.90,SW,234,0.0,-999.0,66,-99.99,,,0.00,weatherlink.com 1.10,2013-04-05 09:40:00,
2013-04-05 05:55:00,35.5,25.0,29.89,SW,234,0.0,-999.0,67,-99.99,,,0.00,weatherlink.com 1.10,2013-04-05 09:55:00,
2013-04-05 06:10:00,35.2,25.0,29.89,SW,234,0.0,-999.0,67,-99.99,,,0.00,weatherlink.com 1.10,2013-04-05 10:10:00,
2013-04-05 06:25:00,35.0,25.0,29.89,SW,234,0.0,-999.0,68,-99.99,,,0.00,weatherlink.com 1.10,2013-04-05 10:25:00,
2013-04-05 06:40:00,34.7,25.0,29.88,SW,234,0.0,-999.0,69,-99.99,,,0.00,weatherlink.com 1.10,2013-04-05 10:40:00,
2013-04-05 06:55:00,34.7,25.0,29.89,SW,234,0.0,-999.0,69,-99.99,,,0.00,weatherlink.com 1.10,2013-04-05 10:55:00,
2013-04-05 07:10:00,35.0,26.0,29.89,SW,234,0.0,-999.0,69,-99.99,,,0.00,weatherlink.com 1.10,2013-04-05 11:10:00,
2013-04-05 07:25:00,35.3,26.0,29.89,SW,234,0.0,-999.0,69,-99.99,,,0.00,weatherlink.com 1.10,2013-04-05 11:25:00,
2013-04-05 07:40:00,35.8,26.0,29.89,SW,234,0.0,-999.0,68,-99.99,,,0.00,weatherlink.com 1.10,2013-04-05 11:40:00,
2013-04-05 07:55:00,36.3,26.0,29.88,SW,234,0.0,-999.0,67,-99.99,,,0.00,weatherlink.com 1.10,2013-04-05 11:55:00,
2013-04-05 08:10:00,37.5,26.0,29.88,SW,234,0.0,-999.0,64,-99.99,,,0.00,weatherlink.com 1.10,2013-04-05 12:10:00,
2013-04-05 08:25:00,39.2,25.0,29.88,SW,230,0.0,-999.0,57,-99.99,,,0.00,weatherlink.com 1.10,2013-04-05 12:25:00,
2013-04-05 08:40:00,40.3,24.0,29.87,SW,230,0.0,-999.0,53,-99.99,,,0.00,weatherlink.com 1.10,2013-04-05 12:40:00,
2013-04-05 08:55:00,41.5,23.0,29.87,SSW,202,3.0,-999.0,49,-99.99,,,0.00,weatherlink.com 1.10,2013-04-05 12:55:00,
2013-04-05 09:10:00,43.1,22.0,29.85,WNW,285,3.0,-999.0,43,-99.99,,,0.00,weatherlink.com 1.10,2013-04-05 13:10:00,
2013-04-05 09:25:00,44.3,21.0,29.84,WSW,254,5.0,-999.0,39,-99.99,,,0.00,weatherlink.com 1.10,2013-04-05 13:25:00,
2013-04-05 09:40:00,46.0,20.0,29.84,WSW,243,3.0,-999.0,36,-99.99,,,0.00,weatherlink.com 1.10,2013-04-05 13:40:00,
2013-04-05 09:55:00,46.8,19.0,29.83,SW,232,3.0,-999.0,33,-99.99,,,0.00,weatherlink.com 1.10,2013-04-05 13:55:00,
2013-04-05 10:10:00,48.0,19.0,29.83,WNW,285,4.0,-999.0,31,-99.99,,,0.00,weatherlink.com 1.10,2013-04-05 14:10:00,
2013-04-05 10:25:00,49.4,18.0,29.83,WSW,239,4.0,-999.0,29,-99.99,,,0.00,weatherlink.com 1.10,2013-04-05 14:25:00,
2013-04-05 10:40:00,50.8,18.0,29.82,WSW,240,8.0,-999.0,27,-99.99,,,0.00,weatherlink.com 1.10,2013-04-05 14:40:00,
2013-04-05 10:55:00,52.0,17.0,29.81,WSW,248,1.0,-999.0,25,-99.99,,,0.00,weatherlink.com 1.10,2013-04-05 14:55:00,
2013-04-05 11:10:00,52.3,16.0,29.80,NNW,328,0.0,-999.0,24,-99.99,,,0.00,weatherlink.com 1.10,2013-04-05 15:10:00,
2013-04-05 11:25:00,53.5,15.0,29.79,SW,224,1.0,-999.0,22,-99.99,,,0.00,weatherlink.com 1.10,2013-04-05 15:25:00,
2013-04-05 11:40:00,54.4,15.0,29.78,NE,41,7.0,-999.0,21,-99.99,,,0.00,weatherlink.com 1.10,2013-04-05 15:40:00,
2013-04-05 11:55:00,54.8,12.0,29.77,SE,133,1.0,-999.0,18,-99.99,,,0.00,weatherlink.com 1.10,2013-04-05 15:55:00,
2013-04-05 12:10:00,56.5,13.0,29.77,NE,34,2.0,-999.0,18,-99.99,,,0.00,weatherlink.com 1.10,2013-04-05 16:10:00,
2013-04-05 12:25:00,57.5,13.0,29.75,NNW,330,3.0,-999.0,17,-99.99,,,0.00,weatherlink.com 1.10,2013-04-05 16:25:00,
2013-04-05 12:40:00,57.5,13.0,29.74,West,272,1.0,-999.0,17,-99.99,,,0.00,weatherlink.com 1.10,2013-04-05 16:40:00,
2013-04-05 12:55:00,58.0,14.0,29.73,NE,56,2.0,-999.0,18,-99.99,,,0.00,weatherlink.com 1.10,2013-04-05 16:55:00,
2013-04-05 13:10:00,58.9,14.0,29.71,WSW,253,3.0,-999.0,17,-99.99,,,0.00,weatherlink.com 1.10,2013-04-05 17:10:00,
2013-04-05 13:40:00,59.9,10.0,29.69,SSW,202,2.0,-999.0,14,-99.99,,,0.00,weatherlink.com 1.10,2013-04-05 17:40:00,
2013-04-05 13:55:00,62.0,14.0,29.68,East,89,1.0,-999.0,15,-99.99,,,0.00,weatherlink.com 1.10,2013-04-05 17:55:00,
2013-04-05 14:10:00,62.3,9.0,29.67,SW,222,1.0,-999.0,12,-99.99,,,0.00,weatherlink.com 1.10,2013-04-05 18:10:00,
2013-04-05 14:25:00,60.7,11.0,29.66,SW,232,5.0,-999.0,14,-99.99,,,0.00,weatherlink.com 1.10,2013-04-05 18:25:00,
2013-04-05 14:40:00,61.5,13.0,29.64,SE,127,1.0,-999.0,15,-99.99,,,0.00,weatherlink.com 1.10,2013-04-05 18:40:00,
2013-04-05 14:55:00,61.6,16.0,29.64,WNW,287,2.0,-999.0,17,-99.99,,,0.00,weatherlink.com 1.10,2013-04-05 18:55:00,
2013-04-05 15:10:00,60.5,17.0,29.63,NE,44,6.0,-999.0,18,-99.99,,,0.00,weatherlink.com 1.10,2013-04-05 19:10:00,
2013-04-05 15:25:00,61.0,14.0,29.63,NNE,27,10.0,-999.0,16,-99.99,,,0.00,weatherlink.com 1.10,2013-04-05 19:25:00,
2013-04-05 15:40:00,61.5,15.0,29.63,North,357,9.0,-999.0,16,-99.99,,,0.00,weatherlink.com 1.10,2013-04-05 19:40:00,
2013-04-05 15:55:00,60.7,15.0,29.62,NNE,24,1.0,-999.0,17,-99.99,,,0.00,weatherlink.com 1.10,2013-04-05 19:55:00,
2013-04-05 16:10:00,59.0,15.0,29.62,NE,35,7.0,-999.0,18,-99.99,,,0.00,weatherlink.com 1.10,2013-04-05 20:10:00,
2013-04-05 16:25:00,58.3,16.0,29.63,NNE,21,2.0,-999.0,19,-99.99,,,0.00,weatherlink.com 1.10,2013-04-05 20:25:00,
2013-04-05 16:40:00,58.0,16.0,29.63,North,0,4.0,-999.0,19,-99.99,,,0.00,weatherlink.com 1.10,2013-04-05 20:40:00,
2013-04-05 16:55:00,57.2,17.0,29.63,NE,35,2.0,-999.0,21,-99.99,,,0.00,weatherlink.com 1.10,2013-04-05 20:55:00,
2013-04-05 17:10:00,56.2,15.0,29.64,WNW,282,6.0,-999.0,20,-99.99,,,0.00,weatherlink.com 1.10,2013-04-05 21:10:00,
2013-04-05 17:25:00,55.9,14.0,29.65,NE,37,10.0,-999.0,19,-99.99,,,0.00,weatherlink.com 1.10,2013-04-05 21:25:00,
2013-04-05 17:40:00,55.6,14.0,29.65,NW,309,4.0,-999.0,19,-99.99,,,0.00,weatherlink.com 1.10,2013-04-05 21:40:00,
2013-04-05 17:55:00,54.7,14.0,29.66,North,8,1.0,-999.0,20,-99.99,,,0.00,weatherlink.com 1.10,2013-04-05 21:55:00,
2013-04-05 18:10:00,54.4,13.0,29.66,NNE,30,0.0,-999.0,19,-99.99,,,0.00,weatherlink.com 1.10,2013-04-05 22:10:00,
2013-04-05 18:25:00,54.1,14.0,29.67,NNE,25,2.0,-999.0,20,-99.99,,,0.00,weatherlink.com 1.10,2013-04-05 22:25:00,
2013-04-05 18:40:00,53.3,14.0,29.68,NNE,27,3.0,-999.0,21,-99.99,,,0.00,weatherlink.com 1.10,2013-04-05 22:40:00,
2013-04-05 19:10:00,50.5,18.0,29.71,NNE,20,8.0,-999.0,28,-99.99,,,0.00,weatherlink.com 1.10,2013-04-05 23:10:00,
2013-04-05 19:25:00,49.4,19.0,29.73,NNE,14,12.0,-999.0,30,-99.99,,,0.00,weatherlink.com 1.10,2013-04-05 23:25:00,
2013-04-05 19:40:00,48.5,19.0,29.74,North,359,1.0,-999.0,31,-99.99,,,0.00,weatherlink.com 1.10,2013-04-05 23:40:00,
2013-04-05 19:55:00,47.4,19.0,29.74,NNE,27,6.0,-999.0,32,-99.99,,,0.00,weatherlink.com 1.10,2013-04-05 23:55:00,
2013-04-05 20:10:00,46.5,17.0,29.75,NNW,333,1.0,-999.0,31,-99.99,,,0.00,weatherlink.com 1.10,2013-04-06 00:10:00,
2013-04-05 20:25:00,45.8,19.0,29.77,NNE,28,6.0,-999.0,34,-99.99,,,0.00,weatherlink.com 1.10,2013-04-06 00:25:00,
2013-04-05 20:40:00,44.9,21.0,29.78,NE,34,4.0,-999.0,38,-99.99,,,0.00,weatherlink.com 1.10,2013-04-06 00:40:00,
2013-04-05 21:10:00,42.6,23.0,29.81,North,0,1.0,-999.0,46,-99.99,,,0.00,weatherlink.com 1.10,2013-04-06 01:10:00,
2013-04-05 21:25:00,41.8,23.0,29.82,North,10,3.0,-999.0,48,-99.99,,,0.00,weatherlink.com 1.10,2013-04-06 01:25:00,
2013-04-05 21:40:00,41.2,23.0,29.83,NNE,31,3.0,-999.0,48,-99.99,,,0.00,weatherlink.com 1.10,2013-04-06 01:40:00,
2013-04-05 21:55:00,40.6,22.0,29.84,NE,35,3.0,-999.0,47,-99.99,,,0.00,weatherlink.com 1.10,2013-04-06 01:55:00,
2013-04-05 22:10:00,40.2,22.0,29.84,NE,52,0.0,-999.0,48,-99.99,,,0.00,weatherlink.com 1.10,2013-04-06 02:10:00,
2013-04-05 22:25:00,39.6,22.0,29.84,NE,51,1.0,-999.0,49,-99.99,,,0.00,weatherlink.com 1.10,2013-04-06 02:25:00,
2013-04-05 22:40:00,39.2,22.0,29.84,ENE,65,2.0,-999.0,50,-99.99,,,0.00,weatherlink.com 1.10,2013-04-06 02:40:00,
2013-04-05 22:55:00,38.8,21.0,29.85,WNW,295,1.0,-999.0,50,-99.99,,,0.00,weatherlink.com 1.10,2013-04-06 02:55:00,
2013-04-05 23:11:00,38.5,21.0,29.85,North,7,0.0,-999.0,50,-99.99,,,0.00,weatherlink.com 1.10,2013-04-06 03:11:00,
2013-04-05 23:26:00,38.0,21.0,29.86,North,1,0.0,-999.0,50,-99.99,,,0.00,weatherlink.com 1.10,2013-04-06 03:26:00,
2013-04-05 23:40:00,37.8,20.0,29.86,NE,56,1.0,-999.0,48,-99.99,,,0.00,weatherlink.com 1.10,2013-04-06 03:40:00,
2013-04-05 23:55:00,37.6,18.0,29.87,ENE,66,1.0,-999.0,46,-99.99,,,0.00,weatherlink.com 1.10,2013-04-06 03:55:00,